Time;durP1;ratioP1;P1;durP2;ratioP2;P2;SDS_P1;SDS_P2;PMS_P1;PMS_P2;Temp;Humidity;BMP_temperature;BMP_pressure;BME280_temperature;BME280_humidity;BME280_pressure;Samples;Min_cycle;Max_cycle;Signal;HPM_P1;HPM_P2
2022/07/20 00:00:38;;;;;;;4.90;4.40;;;24.90;58.90;;;;;;4990699;28;20897;-67
2022/07/20 00:03:05;;;;;;;4.40;4.00;;;24.90;58.80;;;;;;4990923;28;20480;-67
2022/07/20 00:05:31;;;;;;;4.43;3.80;;;24.90;58.90;;;;;;4988771;28;20401;-70
2022/07/20 00:07:57;;;;;;;4.77;4.30;;;24.90;58.90;;;;;;4990630;28;20473;-66
2022/07/20 00:13:07;;;;;;;4.78;4.28;;;24.80;58.80;;;;;;4990016;28;20580;-66
2022/07/20 00:15:33;;;;;;;4.80;4.30;;;24.80;58.80;;;;;;4989383;28;20485;-69
2022/07/20 00:17:58;;;;;;;4.75;4.35;;;24.80;58.80;;;;;;4990148;28;20425;-66
2022/07/20 00:20:24;;;;;;;4.40;4.00;;;24.80;58.80;;;;;;4989641;28;20444;-69
2022/07/20 00:22:50;;;;;;;4.93;4.35;;;24.80;58.80;;;;;;4989610;28;20407;-67
2022/07/20 00:25:16;;;;;;;4.60;4.20;;;24.80;58.80;;;;;;4989274;28;20387;-67
2022/07/20 00:27:41;;;;;;;4.50;4.10;;;24.80;58.80;;;;;;4989123;28;20414;-67
2022/07/20 00:30:08;;;;;;;4.70;4.20;;;24.80;58.80;;;;;;4988650;28;20469;-67
2022/07/20 00:32:38;;;;;;;5.00;4.50;;;24.80;58.80;;;;;;4989628;28;20424;-69
2022/07/20 00:35:09;;;;;;;4.70;4.20;;;24.80;58.80;;;;;;4988999;28;20465;-69
2022/07/20 00:37:35;;;;;;;4.50;4.10;;;24.80;58.80;;;;;;4988567;28;20394;-67
2022/07/20 00:40:01;;;;;;;4.80;4.30;;;24.80;58.80;;;;;;4990128;28;20395;-66
2022/07/20 00:42:26;;;;;;;4.70;4.30;;;24.80;58.80;;;;;;4989253;28;20387;-66
2022/07/20 00:44:52;;;;;;;4.63;4.22;;;24.80;58.80;;;;;;4987405;28;20417;-66
2022/07/20 00:47:18;;;;;;;4.80;4.30;;;24.80;58.80;;;;;;4991180;28;20480;-67
2022/07/20 00:49:44;;;;;;;4.90;4.40;;;24.80;58.80;;;;;;4991520;28;20492;-71
2022/07/20 00:52:10;;;;;;;5.17;4.67;;;24.80;58.80;;;;;;4989658;28;20509;-68
2022/07/20 00:54:39;;;;;;;4.93;4.43;;;24.80;58.80;;;;;;4990321;28;21641;-67
2022/07/20 00:57:05;;;;;;;4.97;4.50;;;24.80;58.80;;;;;;4991714;28;20425;-67
2022/07/20 00:59:31;;;;;;;4.80;4.30;;;24.80;58.80;;;;;;4991709;28;20421;-67
2022/07/20 01:01:57;;;;;;;4.73;4.27;;;24.80;58.80;;;;;;4991129;28;20394;-67
2022/07/20 01:04:23;;;;;;;4.82;4.40;;;24.80;58.80;;;;;;4990396;28;20417;-66
2022/07/20 01:06:49;;;;;;;5.25;4.50;;;24.70;58.80;;;;;;4990446;28;20426;-66
2022/07/20 01:09:18;;;;;;;4.75;4.30;;;24.80;58.80;;;;;;4991642;28;20434;-66
2022/07/20 01:11:44;;;;;;;4.60;4.20;;;24.70;58.70;;;;;;4991490;28;20421;-66
2022/07/20 01:14:10;;;;;;;4.68;4.20;;;24.70;58.80;;;;;;4990836;28;20411;-66
2022/07/20 01:16:37;;;;;;;5.20;4.70;;;24.70;58.80;;;;;;4991142;28;20394;-66
2022/07/20 01:19:04;;;;;;;5.33;4.83;;;24.70;58.80;;;;;;4989978;28;20457;-67
2022/07/20 01:21:30;;;;;;;4.70;4.30;;;24.70;58.70;;;;;;4991606;28;20439;-67
2022/07/20 01:23:56;;;;;;;5.00;4.50;;;24.70;58.70;;;;;;4991407;28;20387;-66
2022/07/20 01:26:22;;;;;;;4.70;4.30;;;24.70;58.80;;;;;;4991631;28;20413;-67
2022/07/20 01:28:48;;;;;;;5.07;4.57;;;24.70;58.80;;;;;;4990478;28;20483;-66
2022/07/20 01:31:14;;;;;;;5.20;4.70;;;24.70;58.70;;;;;;4991551;28;20934;-66
2022/07/20 01:33:39;;;;;;;4.80;4.30;;;24.70;58.80;;;;;;4991901;28;20485;-68
2022/07/20 01:36:05;;;;;;;5.15;4.65;;;24.70;58.70;;;;;;4991196;28;20387;-67
2022/07/20 01:38:31;;;;;;;5.53;4.40;;;24.70;58.70;;;;;;4991863;28;20512;-68
2022/07/20 01:40:57;;;;;;;4.95;4.45;;;24.70;58.80;;;;;;4991818;28;20441;-66
2022/07/20 01:43:22;;;;;;;4.90;4.33;;;24.70;58.80;;;;;;4993457;28;20482;-67
2022/07/20 01:45:48;;;;;;;5.10;4.60;;;24.70;58.70;;;;;;4995580;28;20394;-68
2022/07/20 01:48:14;;;;;;;5.40;4.90;;;24.70;58.70;;;;;;4995178;28;20394;-66
2022/07/20 01:50:40;;;;;;;5.05;4.57;;;24.70;58.70;;;;;;4994312;28;20395;-66
2022/07/20 01:53:08;;;;;;;5.20;4.70;;;24.70;58.70;;;;;;4994056;28;20516;-66
2022/07/20 01:55:33;;;;;;;5.60;5.10;;;24.70;58.70;;;;;;4994113;28;20397;-71
2022/07/20 01:57:59;;;;;;;5.15;4.65;;;24.70;58.70;;;;;;4994824;28;20402;-66
2022/07/20 02:00:25;;;;;;;5.28;4.78;;;24.70;58.70;;;;;;4995266;28;20394;-67
2022/07/20 02:02:51;;;;;;;4.90;4.40;;;24.70;58.70;;;;;;4994113;28;20425;-66
2022/07/20 02:05:18;;;;;;;5.07;4.67;;;24.70;58.70;;;;;;4994026;28;20395;-66
2022/07/20 02:07:45;;;;;;;5.22;4.72;;;24.70;58.70;;;;;;4995130;28;20410;-66
2022/07/20 02:10:14;;;;;;;4.97;4.47;;;24.60;58.70;;;;;;4994745;28;20425;-71
2022/07/20 02:12:39;;;;;;;5.35;4.85;;;24.60;58.60;;;;;;4995069;28;20422;-67
2022/07/20 02:15:07;;;;;;;4.95;4.45;;;24.60;58.60;;;;;;4995034;28;20389;-67
2022/07/20 02:17:33;;;;;;;4.88;4.47;;;24.70;58.70;;;;;;4993743;28;20445;-66
2022/07/20 02:19:59;;;;;;;5.30;4.80;;;24.60;58.60;;;;;;4994468;28;20390;-67
2022/07/20 02:22:25;;;;;;;4.97;4.50;;;24.60;58.60;;;;;;4994893;28;20386;-67
2022/07/20 02:24:51;;;;;;;5.13;4.63;;;24.60;58.60;;;;;;4994840;28;20418;-67
2022/07/20 02:27:17;;;;;;;4.93;4.50;;;24.60;58.60;;;;;;4994423;28;20828;-67
2022/07/20 02:29:43;;;;;;;5.07;4.57;;;24.60;58.60;;;;;;4994528;28;20422;-66
2022/07/20 02:32:09;;;;;;;5.03;4.53;;;24.60;58.60;;;;;;4994035;28;20445;-66
2022/07/20 02:34:35;;;;;;;4.60;4.20;;;24.60;58.60;;;;;;4994729;28;20441;-67
2022/07/20 02:37:01;;;;;;;4.65;4.25;;;24.60;58.70;;;;;;4994840;28;20394;-66
2022/07/20 02:39:26;;;;;;;5.33;4.83;;;24.60;58.70;;;;;;4993253;28;20398;-66
2022/07/20 02:41:52;;;;;;;4.82;4.35;;;24.60;58.70;;;;;;4994716;28;20430;-67
2022/07/20 02:44:18;;;;;;;5.05;4.55;;;24.60;58.70;;;;;;4992946;28;20482;-66
2022/07/20 02:46:43;;;;;;;5.60;5.10;;;24.60;59.20;;;;;;4994493;28;20402;-66
2022/07/20 02:49:09;;;;;;;5.20;4.53;;;24.60;58.60;;;;;;4994400;28;20426;-66
2022/07/20 02:51:35;;;;;;;5.05;4.65;;;24.60;58.60;;;;;;4994184;28;20769;-66
2022/07/20 02:54:00;;;;;;;5.50;4.90;;;24.60;58.60;;;;;;4992242;28;20419;-66
2022/07/20 02:56:26;;;;;;;6.45;4.90;;;24.60;58.60;;;;;;4992449;28;20390;-66
2022/07/20 02:58:52;;;;;;;4.90;4.47;;;24.60;58.60;;;;;;4994128;28;20401;-66
2022/07/20 03:01:17;;;;;;;5.22;4.72;;;24.60;58.60;;;;;;4994202;28;20390;-66
2022/07/20 03:03:43;;;;;;;5.10;4.60;;;24.60;58.60;;;;;;4994158;28;21041;-66
2022/07/20 03:06:09;;;;;;;5.27;4.80;;;24.60;58.60;;;;;;4993689;28;20391;-66
2022/07/20 03:08:35;;;;;;;6.22;4.60;;;24.60;58.70;;;;;;4994043;28;20387;-66
2022/07/20 03:11:01;;;;;;;6.38;4.85;;;24.60;59.90;;;;;;4993936;28;20387;-66
2022/07/20 03:13:26;;;;;;;6.73;5.87;;;24.70;59.50;;;;;;4994008;28;20922;-69
2022/07/20 03:15:53;;;;;;;6.70;5.35;;;24.60;60.10;;;;;;4992760;28;20868;-66
2022/07/20 03:18:19;;;;;;;11.27;5.40;;;24.70;59.70;;;;;;4993686;28;20406;-69
2022/07/20 03:20:45;;;;;;;8.70;5.30;;;24.70;61.70;;;;;;4993925;28;20402;-70
2022/07/20 03:23:11;;;;;;;10.37;5.73;;;24.80;61.40;;;;;;4994099;28;20734;-70
2022/07/20 03:25:36;;;;;;;7.03;4.70;;;24.80;61.30;;;;;;4993580;28;20537;-70
2022/07/20 03:28:02;;;;;;;8.30;5.10;;;24.80;61.30;;;;;;4993367;28;20417;-70
2022/07/20 03:30:29;;;;;;;7.05;4.82;;;24.80;61.90;;;;;;4993677;28;20382;-70
2022/07/20 03:32:56;;;;;;;6.97;4.93;;;24.90;61.90;;;;;;4993492;28;20414;-69
2022/07/20 03:35:22;;;;;;;7.22;5.20;;;24.90;61.70;;;;;;4993591;28;20377;-67
2022/07/20 03:37:48;;;;;;;5.85;4.95;;;24.90;61.60;;;;;;4993452;28;20823;-66
2022/07/20 03:40:14;;;;;;;6.60;5.47;;;25.00;61.80;;;;;;4993124;28;20517;-66
2022/07/20 03:42:40;;;;;;;9.37;5.50;;;24.90;61.40;;;;;;4993463;28;20453;-68
2022/07/20 03:45:06;;;;;;;8.18;5.60;;;24.90;61.60;;;;;;4993203;28;20420;-67
2022/07/20 03:47:33;;;;;;;8.43;5.88;;;24.90;60.90;;;;;;4992052;28;20429;-67
2022/07/20 03:49:59;;;;;;;8.80;5.88;;;24.80;59.30;;;;;;4991820;28;20406;-67
2022/07/20 03:52:25;;;;;;;8.80;5.47;;;24.80;59.80;;;;;;4991688;28;20504;-69
2022/07/20 03:54:50;;;;;;;8.25;5.78;;;24.80;60.20;;;;;;4993193;28;20422;-66
2022/07/20 03:57:16;;;;;;;8.95;5.63;;;24.80;59.40;;;;;;4993205;28;20421;-67
2022/07/20 03:59:42;;;;;;;9.33;6.07;;;24.80;58.90;;;;;;4993137;28;20394;-67
2022/07/20 04:02:07;;;;;;;10.20;6.00;;;24.70;59.00;;;;;;4991451;28;20449;-67
2022/07/20 04:04:33;;;;;;;12.13;6.10;;;24.70;58.80;;;;;;4993096;28;20457;-66
2022/07/20 04:06:59;;;;;;;9.02;5.82;;;24.70;58.40;;;;;;4992944;28;20413;-66
2022/07/20 04:12:13;;;;;;;9.25;6.10;;;24.70;58.10;;;;;;4992378;28;20498;-66
2022/07/20 04:14:39;;;;;;;8.07;6.00;;;24.70;57.90;;;;;;4992886;28;20465;-66
2022/07/20 04:17:05;;;;;;;7.22;5.60;;;24.70;58.00;;;;;;4991451;28;20402;-66
2022/07/20 04:19:31;;;;;;;9.27;6.28;;;24.60;58.20;;;;;;4992845;28;20401;-66
2022/07/20 04:21:58;;;;;;;7.93;5.70;;;24.70;58.00;;;;;;4992684;28;20460;-66
2022/07/20 04:24:25;;;;;;;9.05;5.95;;;24.60;58.20;;;;;;4992510;28;20975;-66
2022/07/20 04:26:51;;;;;;;6.82;5.70;;;24.70;58.20;;;;;;4991196;28;20425;-66
2022/07/20 04:29:17;;;;;;;8.15;5.95;;;24.60;58.00;;;;;;4992425;28;20393;-66
2022/07/20 04:31:44;;;;;;;7.60;5.85;;;24.60;58.00;;;;;;4991128;28;20406;-66
2022/07/20 04:34:10;;;;;;;9.13;6.13;;;24.60;58.10;;;;;;4992001;28;20402;-67
2022/07/20 04:36:35;;;;;;;7.32;5.80;;;24.60;58.10;;;;;;4991274;28;20911;-66
2022/07/20 04:39:01;;;;;;;6.20;5.60;;;24.60;58.30;;;;;;4992408;28;20406;-66
2022/07/20 04:41:27;;;;;;;6.57;5.22;;;24.60;58.30;;;;;;4992067;28;20391;-66
2022/07/20 04:43:52;;;;;;;9.43;5.22;;;24.60;58.30;;;;;;4992262;28;20885;-66
2022/07/20 04:46:18;;;;;;;5.80;5.20;;;24.60;58.20;;;;;;4991892;28;20417;-66
2022/07/20 04:48:43;;;;;;;6.88;5.20;;;24.60;58.30;;;;;;4987326;28;20574;-66
2022/07/20 04:51:09;;;;;;;8.05;5.10;;;24.60;58.30;;;;;;4992138;28;20387;-67
2022/07/20 04:53:35;;;;;;;6.97;5.57;;;24.60;58.20;;;;;;4991857;28;20414;-67
2022/07/20 04:56:00;;;;;;;6.68;5.57;;;24.60;58.30;;;;;;4991715;28;20763;-66
2022/07/20 04:58:26;;;;;;;6.88;5.72;;;24.70;59.30;;;;;;4991640;28;20403;-66
2022/07/20 05:00:52;;;;;;;7.32;5.55;;;24.70;60.00;;;;;;4990773;28;20441;-66
2022/07/20 05:03:17;;;;;;;6.05;5.30;;;24.80;59.80;;;;;;4990703;28;20406;-66
2022/07/20 05:05:43;;;;;;;7.20;5.40;;;24.80;59.80;;;;;;4990550;28;20429;-67
2022/07/20 05:08:09;;;;;;;8.43;5.40;;;24.80;59.80;;;;;;4991310;28;20942;-66
2022/07/20 05:10:35;;;;;;;6.60;5.20;;;24.80;59.90;;;;;;4992020;28;20390;-67
2022/07/20 05:13:01;;;;;;;7.35;5.75;;;24.80;60.30;;;;;;4991966;28;20422;-66
2022/07/20 05:15:27;;;;;;;6.30;5.30;;;24.90;59.90;;;;;;4991761;28;20398;-66
2022/07/20 05:17:53;;;;;;;7.80;5.85;;;24.90;59.90;;;;;;4994059;28;20880;-66
2022/07/20 05:20:19;;;;;;;7.18;5.43;;;24.90;59.90;;;;;;4996732;28;20436;-66
2022/07/20 05:22:45;;;;;;;6.50;5.20;;;24.90;59.80;;;;;;4998425;28;20394;-66
2022/07/20 05:25:11;;;;;;;6.63;5.50;;;24.90;59.90;;;;;;4997885;28;20417;-67
2022/07/20 05:27:37;;;;;;;5.55;5.05;;;24.90;59.80;;;;;;4997142;28;20418;-66
2022/07/20 05:30:04;;;;;;;7.18;5.38;;;24.90;59.90;;;;;;4996242;28;20475;-66
2022/07/20 05:32:30;;;;;;;7.10;5.18;;;25.00;59.80;;;;;;4997900;28;20429;-67
2022/07/20 05:34:55;;;;;;;5.75;5.10;;;24.90;59.10;;;;;;4998179;28;20394;-66
2022/07/20 05:37:21;;;;;;;5.83;5.03;;;24.80;59.10;;;;;;4996946;28;20398;-67
2022/07/20 05:39:47;;;;;;;5.80;5.20;;;24.80;58.90;;;;;;4996739;28;20390;-67
2022/07/20 05:42:13;;;;;;;5.50;4.80;;;24.80;59.00;;;;;;4997444;28;20481;-66
2022/07/20 05:44:39;;;;;;;6.93;5.10;;;24.80;58.90;;;;;;4998136;28;20430;-66
2022/07/20 05:47:09;;;;;;;6.57;5.27;;;24.80;58.90;;;;;;4998121;28;20422;-66
2022/07/20 05:49:35;;;;;;;5.57;5.05;;;24.80;58.80;;;;;;4996636;28;20398;-66
2022/07/20 05:52:02;;;;;;;6.18;5.00;;;24.80;58.90;;;;;;4997875;28;20406;-66
2022/07/20 05:54:28;;;;;;;5.60;5.10;;;24.80;58.90;;;;;;4997461;28;20907;-66
2022/07/20 05:56:53;;;;;;;5.80;5.20;;;24.80;58.90;;;;;;4997905;28;20399;-66
2022/07/20 05:59:19;;;;;;;6.40;5.38;;;24.70;58.70;;;;;;4991387;28;20404;-66
2022/07/20 06:01:45;;;;;;;5.50;4.95;;;24.70;58.80;;;;;;4992221;28;20390;-66
2022/07/20 06:04:14;;;;;;;6.53;4.97;;;24.70;58.70;;;;;;4995650;28;20397;-66
2022/07/20 06:06:40;;;;;;;5.50;4.90;;;24.70;58.70;;;;;;4996641;28;20477;-66
2022/07/20 06:09:06;;;;;;;5.70;5.20;;;24.70;58.60;;;;;;4997228;28;20408;-66
2022/07/20 06:11:33;;;;;;;6.38;5.20;;;24.70;58.80;;;;;;4997604;28;20386;-66
2022/07/20 06:13:59;;;;;;;5.97;5.15;;;24.70;58.80;;;;;;4996627;28;20394;-66
2022/07/20 06:16:25;;;;;;;6.00;5.40;;;24.70;58.80;;;;;;4997440;28;20761;-66
2022/07/20 06:18:51;;;;;;;6.88;5.03;;;24.80;58.80;;;;;;4996419;28;20395;-66
2022/07/20 06:21:16;;;;;;;5.27;4.77;;;24.80;58.80;;;;;;4996499;28;20395;-66
2022/07/20 06:23:42;;;;;;;6.45;5.15;;;24.80;58.70;;;;;;4996415;28;20398;-66
2022/07/20 06:26:08;;;;;;;5.50;5.00;;;24.80;58.70;;;;;;4997108;28;20772;-66
2022/07/20 06:28:34;;;;;;;5.45;4.90;;;24.80;58.60;;;;;;4997105;28;20455;-66
2022/07/20 06:31:00;;;;;;;5.75;4.90;;;24.80;58.80;;;;;;4993906;28;20482;-69
2022/07/20 06:33:26;;;;;;;6.32;4.60;;;24.80;58.80;;;;;;4994513;28;20506;-67
2022/07/20 06:35:52;;;;;;;5.32;4.82;;;24.80;58.70;;;;;;4994672;28;20382;-66
2022/07/20 06:38:17;;;;;;;5.75;5.00;;;24.80;58.70;;;;;;4992544;28;20453;-67
2022/07/20 06:40:43;;;;;;;5.57;5.00;;;24.80;58.60;;;;;;4994295;28;20885;-67
2022/07/20 06:43:09;;;;;;;5.38;4.88;;;24.80;58.60;;;;;;4993903;28;20394;-69
2022/07/20 06:45:35;;;;;;;6.10;5.50;;;24.80;58.70;;;;;;4993076;28;20449;-69
2022/07/20 06:48:01;;;;;;;6.15;5.55;;;24.80;58.60;;;;;;4994281;28;20403;-68
2022/07/20 06:50:27;;;;;;;6.40;5.80;;;24.80;58.70;;;;;;4993836;28;20390;-70
2022/07/20 06:52:53;;;;;;;5.63;5.00;;;24.80;58.60;;;;;;4994048;28;20418;-66
2022/07/20 06:55:19;;;;;;;5.93;5.32;;;24.80;58.60;;;;;;4994280;28;20730;-66
2022/07/20 06:57:44;;;;;;;5.93;5.43;;;24.90;58.70;;;;;;4993982;28;20405;-66
2022/07/20 07:00:11;;;;;;;5.50;5.00;;;24.80;58.60;;;;;;4993736;28;20390;-67
2022/07/20 07:02:37;;;;;;;5.72;5.20;;;24.80;58.50;;;;;;4993771;28;20478;-66
2022/07/20 07:05:04;;;;;;;6.45;4.90;;;24.80;58.70;;;;;;4993931;28;20494;-66
2022/07/20 07:07:29;;;;;;;5.55;5.00;;;24.80;58.70;;;;;;4993833;28;20403;-66
2022/07/20 07:09:55;;;;;;;5.70;5.20;;;24.80;58.50;;;;;;4993674;28;20398;-70
2022/07/20 07:12:21;;;;;;;5.35;4.85;;;24.80;58.50;;;;;;4992790;28;20421;-66
2022/07/20 07:14:47;;;;;;;6.53;5.20;;;24.80;58.60;;;;;;4992261;28;20485;-67
2022/07/20 07:17:13;;;;;;;5.78;5.03;;;24.80;58.60;;;;;;4993642;28;20474;-67
2022/07/20 07:19:41;;;;;;;9.27;5.20;;;24.80;58.70;;;;;;4993708;28;20387;-67
2022/07/20 07:22:08;;;;;;;8.40;5.28;;;24.80;58.70;;;;;;4992275;28;20413;-66
2022/07/20 07:24:34;;;;;;;9.90;5.10;;;24.80;58.60;;;;;;4975532;28;20428;-66
2022/07/20 07:27:00;;;;;;;6.78;4.93;;;24.80;58.50;;;;;;4993410;28;20410;-68
2022/07/20 07:29:26;;;;;;;8.60;5.20;;;24.80;58.40;;;;;;4992311;28;20795;-67
2022/07/20 07:31:52;;;;;;;5.90;5.28;;;24.80;58.30;;;;;;4993070;28;20442;-67
2022/07/20 07:34:18;;;;;;;6.95;5.15;;;24.80;58.50;;;;;;4992821;28;20394;-66
2022/07/20 07:36:43;;;;;;;7.33;4.97;;;24.80;58.30;;;;;;4993310;28;21033;-67
2022/07/20 07:39:09;;;;;;;5.40;4.63;;;24.80;58.30;;;;;;4993237;28;20398;-66
2022/07/20 07:41:35;;;;;;;5.57;4.97;;;24.80;58.30;;;;;;4990013;28;20402;-67
2022/07/20 07:44:00;;;;;;;6.00;5.23;;;24.80;58.20;;;;;;4991196;28;20885;-67
2022/07/20 07:46:26;;;;;;;5.53;4.85;;;24.80;58.40;;;;;;4992659;28;20425;-67
2022/07/20 07:48:52;;;;;;;5.65;5.15;;;24.80;58.20;;;;;;4991789;28;20460;-66
2022/07/20 07:51:18;;;;;;;6.03;5.35;;;24.80;58.40;;;;;;4991769;28;20470;-67
2022/07/20 07:53:43;;;;;;;5.68;5.00;;;24.80;58.30;;;;;;4992644;28;20920;-66
2022/07/20 07:56:10;;;;;;;5.40;4.90;;;24.80;58.00;;;;;;4991972;28;20397;-66
2022/07/20 07:58:36;;;;;;;5.97;5.05;;;24.80;58.10;;;;;;4992765;28;20903;-67
2022/07/20 08:01:01;;;;;;;5.70;5.20;;;24.80;58.20;;;;;;4992997;28;20403;-68
2022/07/20 08:03:27;;;;;;;5.57;5.07;;;24.80;58.20;;;;;;4993207;28;20399;-67
2022/07/20 08:05:53;;;;;;;6.00;5.40;;;24.80;58.10;;;;;;4991353;28;20399;-66
2022/07/20 08:08:19;;;;;;;5.45;4.88;;;24.80;58.10;;;;;;4992428;28;20405;-67
2022/07/20 08:10:45;;;;;;;5.40;4.90;;;24.80;58.10;;;;;;4992801;28;20789;-67
2022/07/20 08:13:12;;;;;;;5.35;4.82;;;24.80;58.10;;;;;;4992659;28;20478;-67
2022/07/20 08:15:38;;;;;;;5.68;4.80;;;24.80;58.20;;;;;;4992601;28;20391;-67
2022/07/20 08:18:04;;;;;;;5.97;5.10;;;24.80;58.10;;;;;;4992517;28;20453;-67
2022/07/20 08:20:30;;;;;;;5.70;5.03;;;24.80;58.10;;;;;;4992022;28;20391;-67
2022/07/20 08:22:56;;;;;;;5.40;4.90;;;24.80;57.90;;;;;;4992361;28;20470;-67
2022/07/20 08:25:22;;;;;;;5.55;5.05;;;24.90;58.20;;;;;;4992813;28;20912;-66
2022/07/20 08:27:49;;;;;;;6.88;5.03;;;24.80;58.10;;;;;;4992465;28;20423;-67
2022/07/20 08:30:15;;;;;;;5.57;5.00;;;24.90;58.10;;;;;;4992336;28;20382;-67
2022/07/20 08:32:41;;;;;;;6.47;4.85;;;24.90;58.50;;;;;;4992320;28;20861;-67
2022/07/20 08:35:07;;;;;;;6.03;4.93;;;24.90;58.30;;;;;;4992354;28;20477;-66
2022/07/20 08:37:33;;;;;;;5.50;5.00;;;24.80;58.30;;;;;;4992570;28;20430;-66
2022/07/20 08:39:59;;;;;;;6.00;5.40;;;24.90;58.10;;;;;;4992260;28;20416;-67
2022/07/20 08:42:25;;;;;;;6.10;5.43;;;24.90;58.30;;;;;;4991470;28;20422;-67
2022/07/20 08:44:50;;;;;;;5.37;4.87;;;24.90;58.30;;;;;;4992165;28;20546;-67
2022/07/20 08:47:16;;;;;;;5.97;5.38;;;24.90;58.30;;;;;;4992252;28;20407;-67
2022/07/20 08:49:49;;;;;;;7.30;5.60;;;24.90;58.30;;;;;;4992290;28;20394;-67
2022/07/20 08:52:16;;;;;;;5.93;5.32;;;24.90;58.40;;;;;;4990084;28;20407;-67
2022/07/20 08:54:42;;;;;;;7.47;5.35;;;24.90;58.40;;;;;;4990750;28;20544;-66
2022/07/20 08:57:16;;;;;;;7.23;4.90;;;24.90;58.30;;;;;;4992270;28;20473;-66
2022/07/20 08:59:43;;;;;;;6.97;5.40;;;24.90;58.50;;;;;;4992191;28;20407;-66
2022/07/20 09:02:09;;;;;;;7.93;5.47;;;24.90;58.50;;;;;;4992076;28;20789;-66
2022/07/20 09:04:55;;;;;;;7.47;5.60;;;24.90;58.40;;;;;;4991414;28;20410;-66
2022/07/20 09:07:40;;;;;;;5.90;5.25;;;24.90;58.50;;;;;;4990823;28;20426;-66
2022/07/20 09:10:09;;;;;;;6.65;5.55;;;24.90;58.40;;;;;;4992031;28;20391;-66
2022/07/20 09:13:00;;;;;;;6.18;5.38;;;24.90;58.50;;;;;;4991479;28;20441;-66
2022/07/20 09:15:40;;;;;;;6.07;5.47;;;25.00;58.50;;;;;;4992067;28;20452;-66
2022/07/20 09:18:08;;;;;;;6.07;5.47;;;25.00;58.40;;;;;;4992089;28;20390;-66
2022/07/20 09:20:35;;;;;;;5.97;5.40;;;25.00;58.50;;;;;;4991664;28;20382;-66
2022/07/20 09:23:03;;;;;;;5.95;5.45;;;24.90;58.30;;;;;;4991972;28;20399;-66
2022/07/20 09:25:29;;;;;;;6.07;5.47;;;25.00;58.40;;;;;;4991887;28;20421;-67
2022/07/20 09:27:56;;;;;;;6.60;5.70;;;25.00;58.40;;;;;;4991987;28;20438;-66
2022/07/20 09:30:22;;;;;;;6.32;5.75;;;25.00;58.30;;;;;;4991613;28;20391;-66
2022/07/20 09:32:54;;;;;;;6.23;5.63;;;25.00;58.50;;;;;;4990377;28;20432;-66
2022/07/20 09:35:21;;;;;;;5.88;5.38;;;25.00;58.30;;;;;;4990651;28;20439;-68
2022/07/20 09:37:47;;;;;;;5.88;5.00;;;25.00;58.30;;;;;;4991368;28;20394;-68
2022/07/20 09:40:12;;;;;;;5.68;5.18;;;25.00;58.30;;;;;;4991457;28;20437;-68
2022/07/20 09:42:40;;;;;;;6.05;5.45;;;25.00;58.30;;;;;;4990829;28;20386;-70
2022/07/20 09:45:21;;;;;;;6.10;5.50;;;25.00;58.50;;;;;;4991493;28;20395;-67
2022/07/20 09:48:06;;;;;;;5.97;5.47;;;25.00;58.30;;;;;;4990085;28;20390;-66
2022/07/20 09:50:34;;;;;;;6.00;5.50;;;25.00;58.40;;;;;;4989034;28;20398;-68
2022/07/20 09:53:00;;;;;;;6.20;5.68;;;25.00;58.40;;;;;;4988987;28;20492;-66
2022/07/20 09:55:26;;;;;;;6.27;5.10;;;25.00;58.30;;;;;;4991271;28;20390;-66
2022/07/20 09:57:53;;;;;;;6.18;5.57;;;25.00;58.30;;;;;;4990697;28;20402;-69
2022/07/20 10:00:20;;;;;;;6.63;5.95;;;25.00;58.40;;;;;;4991208;28;20383;-66
2022/07/20 10:02:53;;;;;;;6.23;5.63;;;25.00;58.40;;;;;;4991396;28;20417;-66
2022/07/20 10:05:20;;;;;;;6.10;5.50;;;25.00;58.40;;;;;;4994815;28;20397;-66
2022/07/20 10:07:46;;;;;;;6.00;5.50;;;25.00;58.40;;;;;;4995325;28;20476;-66
2022/07/20 10:10:12;;;;;;;5.85;5.25;;;25.00;58.30;;;;;;4995172;28;20426;-66
2022/07/20 10:12:38;;;;;;;6.32;5.72;;;25.00;58.30;;;;;;4993482;28;21070;-66
2022/07/20 10:15:29;;;;;;;6.80;6.10;;;25.00;58.30;;;;;;4995186;28;20387;-66
2022/07/20 10:17:55;;;;;;;6.30;5.70;;;25.00;58.40;;;;;;4993943;28;20434;-67
2022/07/20 10:20:35;;;;;;;6.20;5.60;;;25.00;58.30;;;;;;4994812;28;20788;-69
2022/07/20 10:23:16;;;;;;;6.60;6.00;;;25.00;58.40;;;;;;4989741;28;20460;-66
2022/07/20 10:25:42;;;;;;;5.90;5.22;;;25.00;58.40;;;;;;4992333;28;20399;-67
2022/07/20 10:28:23;;;;;;;5.97;5.38;;;25.00;58.30;;;;;;4992999;28;20383;-67
2022/07/20 10:30:54;;;;;;;6.20;5.60;;;25.00;58.40;;;;;;4992766;28;20903;-66
2022/07/20 10:33:21;;;;;;;6.43;5.57;;;25.00;58.50;;;;;;4993138;28;20514;-66
2022/07/20 10:35:48;;;;;;;5.85;5.35;;;25.00;58.40;;;;;;4992782;28;20804;-67
2022/07/20 10:38:21;;;;;;;6.25;5.65;;;25.00;58.40;;;;;;4992889;28;20884;-67
2022/07/20 10:41:31;;;;;;;6.57;5.90;;;25.00;58.40;;;;;;4992526;28;20907;-67
2022/07/20 10:44:22;;;;;;;6.80;6.15;;;25.00;58.40;;;;;;4949853;29;20453;-68
2022/07/20 10:46:49;;;;;;;6.53;5.93;;;25.00;58.30;;;;;;4992331;28;20478;-69
2022/07/20 10:49:15;;;;;;;6.65;5.85;;;25.00;58.40;;;;;;4992678;28;20398;-68
2022/07/20 10:51:41;;;;;;;6.68;5.97;;;25.00;58.40;;;;;;4991301;28;20401;-67
2022/07/20 10:54:43;;;;;;;6.50;5.80;;;25.00;58.40;;;;;;4992533;28;20454;-66
2022/07/20 10:57:10;;;;;;;6.30;5.72;;;25.00;58.40;;;;;;4992844;28;20410;-70
2022/07/20 10:59:36;;;;;;;7.25;6.32;;;25.00;58.40;;;;;;4992130;28;20403;-66
2022/07/20 11:02:02;;;;;;;6.35;5.75;;;25.00;58.60;;;;;;4992010;28;20974;-69
2022/07/20 11:04:27;;;;;;;6.40;5.80;;;25.00;58.40;;;;;;4991655;28;20419;-66
2022/07/20 11:06:53;;;;;;;6.70;6.10;;;25.00;58.40;;;;;;4992207;28;20480;-67
2022/07/20 11:09:18;;;;;;;6.67;6.07;;;25.00;58.50;;;;;;4992407;28;20387;-66
2022/07/20 11:11:44;;;;;;;6.50;5.90;;;25.00;58.40;;;;;;4992085;28;20391;-67
2022/07/20 11:14:11;;;;;;;6.30;5.75;;;25.00;58.40;;;;;;4989535;28;20915;-67
2022/07/20 11:16:38;;;;;;;6.40;5.80;;;25.10;58.40;;;;;;4990957;28;20406;-67
2022/07/20 11:19:05;;;;;;;6.35;5.75;;;25.10;58.60;;;;;;4992014;28;20448;-70
2022/07/20 11:21:40;;;;;;;6.72;6.13;;;25.10;58.40;;;;;;4989651;28;20419;-67
2022/07/20 11:24:22;;;;;;;6.30;5.70;;;25.10;58.50;;;;;;4991966;28;20401;-70
2022/07/20 11:26:48;;;;;;;6.50;5.90;;;25.10;58.50;;;;;;4991487;28;20801;-66
2022/07/20 11:29:14;;;;;;;6.72;6.03;;;25.10;58.40;;;;;;4992117;28;20394;-68
2022/07/20 11:31:40;;;;;;;7.23;5.80;;;25.10;58.30;;;;;;4992057;28;20395;-67
2022/07/20 11:34:05;;;;;;;6.70;6.00;;;25.10;58.30;;;;;;4991701;28;20410;-67
2022/07/20 11:36:35;;;;;;;6.30;5.70;;;25.10;58.30;;;;;;4991488;28;20887;-67
2022/07/20 11:39:11;;;;;;;6.32;5.72;;;25.10;58.20;;;;;;4990256;28;20417;-67
2022/07/20 11:41:39;;;;;;;6.72;6.05;;;25.10;58.30;;;;;;4988279;28;20394;-70
2022/07/20 11:44:07;;;;;;;7.00;6.40;;;25.10;58.20;;;;;;4991355;28;20405;-67
2022/07/20 11:46:40;;;;;;;6.75;6.05;;;25.10;58.20;;;;;;4990141;28;20406;-68
2022/07/20 11:49:13;;;;;;;8.00;6.10;;;25.10;58.30;;;;;;4991503;28;20474;-70
2022/07/20 11:51:40;;;;;;;6.55;5.95;;;25.10;58.00;;;;;;4991478;28;20390;-67
2022/07/20 11:54:06;;;;;;;6.53;5.75;;;25.10;58.30;;;;;;4991326;28;20405;-66
2022/07/20 11:56:34;;;;;;;7.65;5.95;;;25.10;58.20;;;;;;4989797;28;20469;-67
2022/07/20 11:59:01;;;;;;;6.40;5.80;;;25.20;58.30;;;;;;4991484;28;20433;-69
2022/07/20 12:01:29;;;;;;;6.70;6.10;;;25.10;58.20;;;;;;4991361;28;20458;-67
2022/07/20 12:03:56;;;;;;;6.70;6.10;;;25.20;58.40;;;;;;4991236;28;20453;-67
2022/07/20 12:06:22;;;;;;;6.50;5.90;;;25.20;58.20;;;;;;4989945;28;20814;-67
2022/07/20 12:09:08;;;;;;;7.00;6.33;;;25.20;58.20;;;;;;4990608;28;20481;-66
2022/07/20 12:11:35;;;;;;;6.70;6.10;;;25.10;58.20;;;;;;4988833;28;20892;-67
2022/07/20 12:14:01;;;;;;;6.68;6.07;;;25.20;58.30;;;;;;4991065;28;20406;-67
2022/07/20 12:16:38;;;;;;;6.40;5.80;;;25.20;58.40;;;;;;4990700;28;20408;-67
2022/07/20 12:19:04;;;;;;;6.43;5.78;;;25.20;58.30;;;;;;4989900;28;20804;-67
2022/07/20 12:21:45;;;;;;;6.57;5.97;;;25.20;58.10;;;;;;4991090;28;20391;-68
2022/07/20 12:24:11;;;;;;;6.90;6.20;;;25.20;58.30;;;;;;4988390;28;20394;-67
2022/07/20 12:26:38;;;;;;;6.55;5.95;;;25.20;58.30;;;;;;4989942;28;20421;-70
2022/07/20 12:29:24;;;;;;;6.20;5.70;;;25.20;58.20;;;;;;4990344;28;20402;-67
2022/07/20 12:32:06;;;;;;;7.20;6.18;;;25.20;58.20;;;;;;4990542;28;20390;-67
2022/07/20 12:34:48;;;;;;;8.07;5.90;;;25.20;58.20;;;;;;4986787;28;20414;-67
2022/07/20 12:37:13;;;;;;;7.68;5.90;;;25.20;58.10;;;;;;4987355;28;20982;-72
2022/07/20 12:39:48;;;;;;;7.40;6.25;;;25.20;58.10;;;;;;4990692;28;20430;-66
2022/07/20 12:42:15;;;;;;;6.60;5.90;;;25.20;58.20;;;;;;4988411;28;20761;-68
2022/07/20 12:44:42;;;;;;;6.38;5.78;;;25.20;58.20;;;;;;4990307;28;20410;-67
2022/07/20 12:47:09;;;;;;;7.07;6.07;;;25.30;58.20;;;;;;4990748;28;20511;-67
2022/07/20 12:49:35;;;;;;;7.93;6.05;;;25.30;58.30;;;;;;4990084;28;20413;-67
2022/07/20 12:52:01;;;;;;;8.85;6.50;;;25.30;58.20;;;;;;4990306;28;20488;-69